Time;durP1;ratioP1;P1;durP2;ratioP2;P2;SDS_P1;SDS_P2;PMS_P1;PMS_P2;Temp;Humidity;BMP_temperature;BMP_pressure;BME280_temperature;BME280_humidity;BME280_pressure;Samples;Min_cycle;Max_cycle;Signal;HPM_P1;HPM_P2
2021/10/14 00:02:24;;;;;;;8.77;3.53;;;7.90;99.90;;;;;;5072068;28;20232;-62
2021/10/14 00:04:49;;;;;;;6.47;3.80;;;7.90;99.90;;;;;;5073106;28;20167;-60
2021/10/14 00:07:15;;;;;;;4.60;3.30;;;7.90;99.90;;;;;;5073015;28;20168;-62
2021/10/14 00:09:41;;;;;;;3.37;2.70;;;7.90;99.90;;;;;;5072528;28;20176;-62
2021/10/14 00:12:06;;;;;;;4.23;3.20;;;7.90;99.90;;;;;;5054550;28;20195;-62
2021/10/14 00:14:32;;;;;;;4.27;3.13;;;7.80;99.90;;;;;;5072841;28;20267;-62
2021/10/14 00:16:58;;;;;;;3.07;2.47;;;7.70;99.90;;;;;;5072608;28;20162;-62
2021/10/14 00:19:24;;;;;;;3.93;3.43;;;7.70;99.90;;;;;;5072589;28;20200;-62
2021/10/14 00:21:49;;;;;;;3.70;3.20;;;7.70;99.90;;;;;;5072839;28;20523;-61
2021/10/14 00:24:15;;;;;;;4.87;3.37;;;7.60;99.90;;;;;;5072248;28;20198;-62
2021/10/14 00:26:41;;;;;;;4.07;3.37;;;7.60;99.90;;;;;;5072243;28;20178;-62
2021/10/14 00:29:06;;;;;;;3.70;3.37;;;7.60;99.90;;;;;;5072473;28;20174;-62
2021/10/14 00:31:32;;;;;;;4.23;3.30;;;7.70;99.90;;;;;;5073832;28;20216;-62
2021/10/14 00:33:57;;;;;;;4.07;2.90;;;7.70;99.90;;;;;;5076275;28;20246;-62
2021/10/14 00:36:24;;;;;;;5.10;3.60;;;7.70;99.90;;;;;;5075596;28;20249;-63
2021/10/14 00:38:49;;;;;;;4.33;3.17;;;7.70;99.90;;;;;;5064955;28;20225;-62
2021/10/14 00:41:16;;;;;;;2.97;2.67;;;7.70;99.90;;;;;;5072289;28;20414;-62
2021/10/14 00:43:42;;;;;;;6.47;3.60;;;7.60;99.90;;;;;;5076133;28;20218;-62
2021/10/14 00:46:17;;;;;;;3.43;3.07;;;7.60;99.90;;;;;;5076296;28;20412;-62
2021/10/14 00:48:43;;;;;;;6.33;3.73;;;7.60;99.90;;;;;;5076345;28;20632;-62
2021/10/14 00:51:10;;;;;;;5.07;3.30;;;7.60;99.90;;;;;;5076119;28;20456;-62
2021/10/14 00:53:37;;;;;;;3.40;3.07;;;7.60;99.90;;;;;;5075769;28;20483;-62
2021/10/14 00:56:04;;;;;;;4.17;3.50;;;7.60;99.90;;;;;;5075521;28;20405;-62
2021/10/14 00:58:30;;;;;;;6.67;3.27;;;7.60;99.90;;;;;;5076054;28;20404;-62
2021/10/14 01:00:56;;;;;;;4.00;3.00;;;7.60;99.90;;;;;;5075967;28;20487;-62
2021/10/14 01:03:22;;;;;;;3.57;3.07;;;7.60;99.90;;;;;;5075728;28;20497;-62
2021/10/14 01:05:48;;;;;;;3.33;3.03;;;7.70;99.90;;;;;;5076346;28;20413;-62
2021/10/14 01:08:14;;;;;;;2.90;2.60;;;7.70;99.90;;;;;;5075862;28;20432;-62
2021/10/14 01:10:39;;;;;;;3.67;3.37;;;7.70;99.90;;;;;;5075602;28;20177;-62
2021/10/14 01:13:07;;;;;;;5.17;3.27;;;7.70;99.90;;;;;;5057346;28;20186;-61
2021/10/14 01:15:32;;;;;;;4.70;2.97;;;7.70;99.90;;;;;;5075883;28;20194;-61
2021/10/14 01:17:58;;;;;;;2.87;2.67;;;7.70;99.90;;;;;;5075574;28;20928;-62
2021/10/14 01:20:24;;;;;;;5.80;3.10;;;7.70;99.90;;;;;;5075324;28;20176;-62
2021/10/14 01:22:50;;;;;;;4.63;3.90;;;7.70;99.90;;;;;;5075515;28;20227;-62
2021/10/14 01:25:15;;;;;;;3.80;3.17;;;7.60;99.90;;;;;;5075089;28;20927;-62
2021/10/14 01:27:41;;;;;;;3.47;2.87;;;7.50;99.90;;;;;;5075205;28;20185;-62
2021/10/14 01:30:08;;;;;;;4.50;3.20;;;7.50;99.90;;;;;;5075247;28;20521;-62
2021/10/14 01:32:34;;;;;;;3.33;2.87;;;7.50;99.90;;;;;;5075014;28;20475;-62
2021/10/14 01:35:00;;;;;;;4.07;3.50;;;7.50;99.90;;;;;;5057168;28;20438;-62
2021/10/14 01:37:27;;;;;;;6.33;3.63;;;7.50;99.90;;;;;;5075323;28;21002;-62
2021/10/14 01:39:52;;;;;;;6.40;3.73;;;7.50;99.90;;;;;;5075086;28;20415;-62
2021/10/14 01:42:18;;;;;;;4.80;4.00;;;7.50;99.90;;;;;;5074191;28;20889;-63
2021/10/14 01:44:44;;;;;;;7.17;4.00;;;7.50;99.90;;;;;;5074559;28;20601;-62
2021/10/14 01:47:09;;;;;;;3.87;3.40;;;7.70;99.90;;;;;;5075146;28;20262;-62
2021/10/14 01:49:35;;;;;;;5.60;3.30;;;7.70;99.90;;;;;;5074776;28;20197;-63
2021/10/14 01:52:00;;;;;;;4.07;3.33;;;7.70;99.90;;;;;;5074968;28;20246;-62
2021/10/14 01:54:26;;;;;;;3.43;3.13;;;7.70;99.90;;;;;;5074286;28;20593;-62
2021/10/14 01:56:51;;;;;;;4.33;2.97;;;7.80;99.90;;;;;;5074439;28;20167;-62
2021/10/14 01:59:17;;;;;;;6.13;3.27;;;7.80;99.90;;;;;;5074670;28;20575;-62
2021/10/14 02:01:43;;;;;;;2.90;2.60;;;7.80;99.90;;;;;;5074563;28;20169;-62
2021/10/14 02:04:08;;;;;;;3.00;2.70;;;7.80;99.90;;;;;;5074442;28;20190;-62
2021/10/14 02:06:34;;;;;;;4.53;3.57;;;7.70;99.90;;;;;;5074417;28;20667;-62
2021/10/14 02:08:59;;;;;;;3.70;2.80;;;7.80;99.90;;;;;;5074441;28;20534;-62
2021/10/14 02:11:25;;;;;;;6.13;2.97;;;7.70;99.90;;;;;;5073808;28;20199;-62
2021/10/14 02:13:50;;;;;;;3.90;3.50;;;7.70;99.90;;;;;;5074288;28;20190;-62
2021/10/14 02:16:16;;;;;;;3.40;3.10;;;7.70;99.90;;;;;;5074693;28;20248;-61
2021/10/14 02:18:42;;;;;;;5.33;3.40;;;7.60;99.90;;;;;;5074198;28;20172;-62
2021/10/14 02:21:07;;;;;;;5.27;3.30;;;7.50;99.90;;;;;;5074401;28;20170;-61
2021/10/14 02:23:33;;;;;;;3.57;2.83;;;7.40;99.90;;;;;;5074229;28;20193;-62
2021/10/14 02:25:59;;;;;;;3.60;2.70;;;7.30;99.90;;;;;;5074013;28;20689;-62
2021/10/14 02:28:25;;;;;;;4.30;3.30;;;7.40;99.90;;;;;;5073829;28;20171;-62
2021/10/14 02:30:51;;;;;;;2.80;2.60;;;7.50;99.90;;;;;;5074168;28;20643;-62
2021/10/14 02:33:17;;;;;;;3.40;3.10;;;7.50;99.90;;;;;;5060661;28;20453;-62
2021/10/14 02:35:42;;;;;;;6.27;3.80;;;7.40;99.90;;;;;;5053839;28;20629;-62
2021/10/14 02:38:08;;;;;;;3.60;2.70;;;7.50;99.90;;;;;;5053965;28;20159;-63
2021/10/14 02:40:34;;;;;;;3.93;3.53;;;7.50;99.90;;;;;;5053627;28;20159;-62
2021/10/14 02:43:00;;;;;;;4.80;3.40;;;7.50;99.90;;;;;;5053532;28;20190;-62
2021/10/14 02:45:26;;;;;;;6.30;2.97;;;7.50;99.90;;;;;;5053809;28;20402;-62
2021/10/14 02:47:51;;;;;;;3.27;3.00;;;7.50;99.90;;;;;;5053678;28;20958;-62
2021/10/14 02:50:17;;;;;;;3.30;2.77;;;7.40;99.90;;;;;;5053826;28;20166;-60
2021/10/14 02:55:10;;;;;;;3.13;2.80;;;7.30;99.90;;;;;;5091087;28;20678;-62
2021/10/14 02:57:36;;;;;;;4.17;3.60;;;7.40;99.90;;;;;;5093822;28;20442;-62
2021/10/14 03:00:04;;;;;;;3.00;2.70;;;7.40;99.90;;;;;;5093778;28;20554;-60
2021/10/14 03:02:29;;;;;;;4.70;3.27;;;7.40;99.90;;;;;;5093924;28;20205;-61
2021/10/14 03:04:55;;;;;;;3.00;2.53;;;7.30;99.90;;;;;;5093835;28;20423;-61
2021/10/14 03:07:20;;;;;;;4.07;3.60;;;7.40;99.90;;;;;;5093812;28;20167;-61
2021/10/14 03:09:46;;;;;;;4.07;2.90;;;7.40;99.90;;;;;;5093473;28;20174;-62
2021/10/14 03:12:11;;;;;;;3.97;3.20;;;7.30;99.90;;;;;;5093306;28;20319;-62
2021/10/14 03:14:37;;;;;;;3.00;2.70;;;7.30;99.90;;;;;;5093432;28;20547;-62
2021/10/14 03:17:03;;;;;;;4.53;3.53;;;7.30;99.90;;;;;;5093501;28;20167;-62
2021/10/14 03:19:28;;;;;;;3.30;2.80;;;7.30;99.90;;;;;;5093633;28;20172;-62
2021/10/14 03:21:54;;;;;;;2.97;2.70;;;7.30;99.90;;;;;;5093800;28;20190;-62
2021/10/14 03:24:19;;;;;;;3.80;3.23;;;7.40;99.90;;;;;;5093656;28;20242;-63
2021/10/14 03:26:45;;;;;;;4.53;3.00;;;7.40;99.90;;;;;;5093138;28;20483;-62
2021/10/14 03:29:10;;;;;;;3.30;3.00;;;7.40;99.90;;;;;;5091119;28;20169;-62
2021/10/14 03:31:36;;;;;;;3.87;3.20;;;7.50;99.90;;;;;;5062272;28;20274;-62
2021/10/14 03:34:02;;;;;;;4.23;2.97;;;7.50;99.90;;;;;;5073155;28;20269;-62
2021/10/14 03:36:27;;;;;;;3.67;3.27;;;7.50;99.90;;;;;;5073199;28;20573;-62
2021/10/14 03:38:53;;;;;;;3.87;2.93;;;7.50;99.90;;;;;;5073372;28;20162;-62
2021/10/14 03:41:18;;;;;;;3.27;2.90;;;7.50;99.90;;;;;;5072936;28;20172;-62
2021/10/14 03:43:44;;;;;;;5.07;3.30;;;7.50;99.90;;;;;;5073422;28;20551;-62
2021/10/14 03:46:09;;;;;;;3.77;3.37;;;7.40;99.90;;;;;;5073331;28;20205;-62
2021/10/14 03:48:35;;;;;;;4.10;3.37;;;7.40;99.90;;;;;;5072938;28;20171;-62
2021/10/14 03:51:00;;;;;;;4.00;3.30;;;7.40;99.90;;;;;;5072944;28;20189;-62
2021/10/14 03:53:26;;;;;;;3.20;2.90;;;7.40;99.90;;;;;;5072947;28;20199;-61
2021/10/14 03:55:52;;;;;;;2.80;2.60;;;7.40;99.90;;;;;;5072883;28;20173;-62
2021/10/14 03:58:17;;;;;;;4.30;3.40;;;7.30;99.90;;;;;;5065707;28;20242;-62
2021/10/14 04:00:43;;;;;;;5.43;3.47;;;7.30;99.90;;;;;;5050262;28;20170;-62
2021/10/14 04:03:08;;;;;;;3.73;3.20;;;7.20;99.90;;;;;;5073047;28;20212;-61
2021/10/14 04:05:34;;;;;;;3.37;3.07;;;7.30;99.90;;;;;;5072886;28;20154;-62
2021/10/14 04:07:59;;;;;;;4.20;3.70;;;7.20;99.90;;;;;;5076523;28;20164;-62
2021/10/14 04:10:25;;;;;;;4.40;4.00;;;7.20;99.90;;;;;;5076553;28;20177;-63
2021/10/14 04:12:50;;;;;;;4.90;3.67;;;7.10;99.90;;;;;;5076368;28;20201;-62
2021/10/14 04:15:18;;;;;;;4.20;3.50;;;7.10;99.90;;;;;;5076621;28;20166;-62
2021/10/14 04:17:43;;;;;;;3.50;3.20;;;7.10;99.90;;;;;;5077188;28;20158;-62
2021/10/14 04:20:09;;;;;;;3.60;3.30;;;7.10;99.90;;;;;;5076704;28;20407;-62
2021/10/14 04:22:35;;;;;;;4.37;3.97;;;7.00;99.90;;;;;;5076859;28;20170;-62
2021/10/14 04:25:00;;;;;;;4.20;3.80;;;7.10;99.90;;;;;;5076087;28;20490;-62
2021/10/14 04:27:26;;;;;;;5.07;3.97;;;7.20;99.90;;;;;;5076336;28;20264;-62
2021/10/14 04:29:52;;;;;;;4.60;3.70;;;7.20;99.90;;;;;;5076566;28;20223;-62
2021/10/14 04:32:17;;;;;;;4.07;3.67;;;7.20;99.90;;;;;;5076990;28;20606;-62
2021/10/14 04:34:43;;;;;;;6.60;4.30;;;7.20;99.90;;;;;;5076283;28;20181;-62
2021/10/14 04:37:09;;;;;;;4.13;3.73;;;7.20;99.90;;;;;;5074788;28;20173;-61
2021/10/14 04:39:38;;;;;;;4.53;3.90;;;7.20;99.90;;;;;;5058190;28;20776;-61
2021/10/14 04:42:05;;;;;;;5.17;4.10;;;7.20;99.90;;;;;;5055928;28;20248;-61
2021/10/14 04:44:31;;;;;;;4.93;4.43;;;7.20;99.90;;;;;;5056470;28;20425;-61
2021/10/14 04:46:56;;;;;;;5.07;4.03;;;7.30;99.90;;;;;;5056258;28;20403;-61
2021/10/14 04:49:22;;;;;;;5.53;3.60;;;7.40;99.90;;;;;;5056260;28;20650;-61
2021/10/14 04:51:48;;;;;;;5.70;3.87;;;7.50;99.90;;;;;;5055916;28;20193;-61
2021/10/14 04:54:13;;;;;;;4.73;4.23;;;7.40;99.90;;;;;;5072290;28;20454;-61
2021/10/14 04:56:39;;;;;;;7.30;5.33;;;7.50;99.90;;;;;;5095969;28;20251;-61
2021/10/14 04:59:04;;;;;;;7.33;4.07;;;7.50;99.90;;;;;;5096301;28;20219;-61
2021/10/14 05:01:30;;;;;;;5.13;4.43;;;7.50;99.90;;;;;;5096400;28;20544;-61
2021/10/14 05:03:56;;;;;;;5.17;4.67;;;7.50;99.90;;;;;;5077887;28;20193;-61
2021/10/14 05:06:21;;;;;;;5.30;4.80;;;7.50;99.90;;;;;;5096124;28;20162;-62
2021/10/14 05:08:47;;;;;;;6.20;5.40;;;7.60;99.90;;;;;;5096067;28;20172;-62
2021/10/14 05:11:13;;;;;;;9.13;5.73;;;7.60;99.90;;;;;;5095613;28;20246;-61
2021/10/14 05:13:40;;;;;;;5.63;5.03;;;7.70;99.90;;;;;;5095804;28;20183;-62
2021/10/14 05:16:06;;;;;;;5.10;4.60;;;7.70;99.90;;;;;;5095814;28;20451;-63
2021/10/14 05:18:31;;;;;;;7.60;5.00;;;7.70;99.90;;;;;;5095548;28;20431;-62
2021/10/14 05:20:57;;;;;;;6.60;4.87;;;7.80;99.90;;;;;;5095873;28;20435;-61
2021/10/14 05:23:23;;;;;;;4.90;4.40;;;7.80;99.90;;;;;;5095720;28;20277;-62
2021/10/14 05:25:48;;;;;;;5.47;4.67;;;7.80;99.90;;;;;;5095284;28;20165;-63
2021/10/14 05:28:15;;;;;;;6.03;4.20;;;7.90;99.90;;;;;;5095210;28;20254;-62
2021/10/14 05:30:41;;;;;;;4.57;4.17;;;7.90;99.90;;;;;;5095802;28;20246;-63
2021/10/14 05:33:16;;;;;;;5.57;4.93;;;8.00;99.90;;;;;;5096145;28;20478;-62
2021/10/14 05:35:42;;;;;;;5.33;4.40;;;8.00;99.90;;;;;;5095893;28;20385;-62
2021/10/14 05:38:07;;;;;;;5.10;4.63;;;8.10;99.90;;;;;;5096653;28;20894;-63
2021/10/14 05:40:33;;;;;;;5.87;4.57;;;8.20;99.90;;;;;;5095114;28;20172;-63
2021/10/14 05:43:00;;;;;;;6.27;4.30;;;8.20;99.90;;;;;;5095071;28;20173;-62
2021/10/14 05:45:26;;;;;;;5.67;4.20;;;8.20;99.90;;;;;;5095571;28;20595;-62
2021/10/14 05:47:51;;;;;;;4.47;4.07;;;8.30;99.90;;;;;;5095051;28;20494;-62
2021/10/14 05:50:17;;;;;;;6.30;4.10;;;8.30;99.90;;;;;;5094799;28;20174;-60
2021/10/14 05:52:42;;;;;;;4.90;4.40;;;8.30;99.90;;;;;;5095062;28;20211;-62
2021/10/14 05:55:08;;;;;;;5.80;5.17;;;8.30;99.90;;;;;;5094456;28;20193;-61
2021/10/14 05:57:34;;;;;;;5.63;4.80;;;8.30;99.90;;;;;;5094909;28;20246;-61
2021/10/14 05:59:59;;;;;;;4.53;4.00;;;8.20;99.90;;;;;;5095193;28;20635;-61
2021/10/14 06:02:25;;;;;;;6.10;5.07;;;8.20;99.90;;;;;;5095013;28;20246;-62
2021/10/14 06:04:50;;;;;;;11.57;9.70;;;8.20;99.90;;;;;;5094711;28;20200;-61
2021/10/14 06:07:17;;;;;;;5.83;5.00;;;8.30;99.90;;;;;;5094722;28;20623;-62
2021/10/14 06:09:43;;;;;;;5.23;4.73;;;8.40;99.90;;;;;;5094488;28;20639;-60
2021/10/14 06:12:08;;;;;;;5.13;4.73;;;8.40;99.90;;;;;;5093984;28;20451;-62
2021/10/14 06:14:35;;;;;;;5.40;4.60;;;8.40;99.90;;;;;;5094437;28;20205;-62
2021/10/14 06:17:00;;;;;;;5.07;4.57;;;8.40;99.90;;;;;;5094410;28;20166;-60
2021/10/14 06:19:26;;;;;;;5.33;4.87;;;8.50;99.90;;;;;;5094892;28;20398;-61
2021/10/14 06:21:51;;;;;;;6.60;5.13;;;8.50;99.90;;;;;;5094295;28;20192;-62
2021/10/14 06:24:17;;;;;;;7.97;5.23;;;8.60;99.90;;;;;;5094025;28;20548;-62
2021/10/14 06:26:43;;;;;;;7.60;5.90;;;8.70;99.90;;;;;;5094091;28;20191;-62
2021/10/14 06:29:08;;;;;;;7.07;5.90;;;8.80;99.90;;;;;;5093243;28;20220;-62
2021/10/14 06:31:34;;;;;;;7.37;4.90;;;8.80;99.90;;;;;;5094144;28;20712;-61
2021/10/14 06:33:59;;;;;;;5.80;5.20;;;8.90;99.90;;;;;;5065808;28;20267;-62
2021/10/14 06:36:25;;;;;;;7.00;5.27;;;9.00;99.90;;;;;;5053845;28;20176;-62
2021/10/14 06:38:51;;;;;;;7.83;6.10;;;9.10;99.90;;;;;;5053922;28;20628;-61
2021/10/14 06:41:16;;;;;;;6.67;5.97;;;9.00;99.90;;;;;;5053492;28;20176;-62
2021/10/14 06:43:43;;;;;;;9.03;5.57;;;9.00;99.90;;;;;;5053375;28;20787;-62
2021/10/14 06:46:09;;;;;;;6.53;5.47;;;9.10;99.90;;;;;;5053661;28;20331;-60
2021/10/14 06:48:34;;;;;;;6.20;5.60;;;9.10;99.90;;;;;;5053596;28;20401;-62
2021/10/14 06:51:00;;;;;;;5.73;5.13;;;9.20;99.90;;;;;;5058837;28;20429;-60
2021/10/14 06:53:26;;;;;;;6.10;5.60;;;9.30;99.90;;;;;;5067663;28;20203;-61
2021/10/14 06:55:52;;;;;;;7.13;5.40;;;9.40;99.90;;;;;;5073769;28;20149;-60
2021/10/14 06:58:17;;;;;;;6.47;4.87;;;9.40;99.90;;;;;;5073152;28;20166;-62
2021/10/14 07:00:43;;;;;;;6.07;4.87;;;9.40;99.90;;;;;;5073531;28;20169;-60
2021/10/14 07:03:09;;;;;;;7.90;5.23;;;9.40;99.90;;;;;;5073397;28;20189;-60
2021/10/14 07:05:35;;;;;;;5.67;4.93;;;9.40;99.90;;;;;;5073912;28;20203;-60
2021/10/14 07:08:00;;;;;;;6.70;5.77;;;9.50;99.90;;;;;;5073781;28;20192;-61
2021/10/14 07:10:26;;;;;;;5.93;5.33;;;9.60;99.90;;;;;;5073401;28;20440;-61
2021/10/14 07:12:52;;;;;;;5.50;4.77;;;9.70;99.90;;;;;;5072919;28;20243;-62
2021/10/14 07:15:19;;;;;;;7.53;5.93;;;9.80;99.90;;;;;;5073563;28;20169;-61
2021/10/14 07:17:45;;;;;;;6.20;5.10;;;9.80;99.90;;;;;;5073531;28;20851;-62
2021/10/14 07:20:11;;;;;;;5.77;5.17;;;9.90;99.90;;;;;;5073214;28;20499;-62
2021/10/14 07:22:37;;;;;;;9.53;5.53;;;9.90;99.90;;;;;;5073464;28;20170;-62
2021/10/14 07:25:04;;;;;;;6.17;4.70;;;10.00;99.90;;;;;;5088075;28;20434;-62
2021/10/14 07:27:29;;;;;;;7.63;5.67;;;10.10;99.90;;;;;;5093177;28;20406;-62
2021/10/14 07:29:55;;;;;;;7.83;4.80;;;10.30;99.90;;;;;;5093476;28;20482;-62
2021/10/14 07:32:21;;;;;;;7.53;4.90;;;10.40;99.90;;;;;;5093256;28;20795;-61
2021/10/14 07:34:46;;;;;;;6.67;5.07;;;10.30;99.90;;;;;;5093166;28;20185;-62
2021/10/14 07:37:14;;;;;;;7.27;5.50;;;10.50;99.90;;;;;;5093415;28;20221;-61
2021/10/14 07:39:39;;;;;;;6.90;5.70;;;10.70;99.90;;;;;;5093477;28;20162;-62
2021/10/14 07:42:05;;;;;;;6.17;5.20;;;10.70;99.90;;;;;;5091738;28;20426;-61
2021/10/14 07:44:30;;;;;;;6.53;5.60;;;10.80;99.90;;;;;;5093270;28;20233;-62
2021/10/14 07:46:56;;;;;;;6.83;5.47;;;11.00;99.90;;;;;;5093200;28;20608;-62
2021/10/14 07:49:22;;;;;;;6.43;4.40;;;11.00;99.90;;;;;;5093245;28;20259;-62
2021/10/14 07:51:48;;;;;;;4.77;4.27;;;11.20;99.90;;;;;;5093055;28;20532;-62
2021/10/14 07:54:13;;;;;;;4.37;3.97;;;11.30;99.90;;;;;;5093459;28;20554;-62
2021/10/14 07:56:39;;;;;;;6.17;4.10;;;11.60;99.90;;;;;;5093002;28;20159;-62
2021/10/14 07:59:05;;;;;;;7.03;4.73;;;11.70;99.90;;;;;;5092716;28;20168;-62
2021/10/14 08:01:30;;;;;;;4.87;3.73;;;11.80;99.90;;;;;;5093335;28;20422;-61
2021/10/14 08:03:57;;;;;;;4.83;4.00;;;11.80;99.90;;;;;;5093194;28;20185;-62
2021/10/14 08:06:22;;;;;;;5.87;3.80;;;12.00;99.90;;;;;;5093043;28;20157;-62
2021/10/14 08:08:48;;;;;;;4.63;3.10;;;12.00;99.90;;;;;;5092897;28;20410;-62
2021/10/14 08:11:14;;;;;;;4.20;3.50;;;11.90;99.90;;;;;;5092633;28;20290;-62
2021/10/14 08:13:39;;;;;;;6.00;3.97;;;11.90;99.90;;;;;;5092756;28;20182;-62
2021/10/14 08:16:06;;;;;;;5.53;4.50;;;11.70;99.90;;;;;;5092776;28;20229;-62
2021/10/14 08:18:32;;;;;;;4.77;3.90;;;11.60;99.90;;;;;;5092861;28;20165;-62
2021/10/14 08:20:59;;;;;;;3.77;2.70;;;11.30;99.90;;;;;;5093035;28;20491;-62
2021/10/14 08:23:26;;;;;;;6.53;3.80;;;11.30;99.90;;;;;;5092845;28;20419;-62
2021/10/14 08:25:52;;;;;;;3.70;2.67;;;11.40;99.90;;;;;;5092670;28;20407;-62
2021/10/14 08:28:19;;;;;;;4.97;3.40;;;11.50;99.90;;;;;;5092729;28;20411;-62
2021/10/14 08:30:47;;;;;;;5.37;3.30;;;11.70;99.90;;;;;;5092440;28;20407;-62
2021/10/14 08:33:14;;;;;;;4.30;3.63;;;11.80;99.90;;;;;;5092452;28;20897;-62
2021/10/14 08:35:40;;;;;;;3.53;3.23;;;11.90;99.90;;;;;;5061717;28;20489;-62
2021/10/14 08:38:08;;;;;;;3.80;2.90;;;12.20;99.90;;;;;;5053182;28;20432;-61
2021/10/14 08:40:34;;;;;;;3.97;2.53;;;12.30;99.90;;;;;;5052119;28;20213;-61
2021/10/14 08:43:04;;;;;;;4.00;3.20;;;12.20;99.90;;;;;;5052140;28;20462;-61
2021/10/14 08:45:33;;;;;;;5.67;3.57;;;12.10;99.90;;;;;;5052536;28;20488;-62
2021/10/14 08:48:00;;;;;;;3.20;2.87;;;12.00;99.90;;;;;;5052701;28;20431;-61
2021/10/14 08:50:26;;;;;;;7.20;3.50;;;12.10;99.90;;;;;;5052820;28;20828;-62
2021/10/14 08:52:51;;;;;;;5.37;3.50;;;12.20;99.90;;;;;;5054128;28;20537;-62
2021/10/14 08:55:17;;;;;;;4.27;3.13;;;12.10;99.90;;;;;;5062743;23;20232;-59
2021/10/14 08:57:42;;;;;;;6.20;3.60;;;12.00;99.90;;;;;;5035366;28;20170;-58
2021/10/14 09:00:09;;;;;;;3.90;3.37;;;12.10;99.90;;;;;;5035959;28;20592;-58
2021/10/14 09:02:34;;;;;;;5.77;3.80;;;12.10;99.90;;;;;;5035873;28;20648;-60
2021/10/14 09:05:05;;;;;;;6.00;3.70;;;12.10;99.90;;;;;;5035550;28;20414;-61
2021/10/14 09:07:32;;;;;;;4.80;3.70;;;12.20;99.90;;;;;;5035747;28;20162;-60
2021/10/14 09:10:04;;;;;;;4.50;3.43;;;12.20;99.90;;;;;;5035809;28;20440;-61
2021/10/14 09:12:37;;;;;;;3.90;3.37;;;12.40;99.90;;;;;;5034987;28;20431;-60
2021/10/14 09:15:15;;;;;;;6.40;3.30;;;12.60;99.90;;;;;;5035772;28;20418;-60
2021/10/14 09:17:52;;;;;;;3.77;2.90;;;12.90;99.90;;;;;;5035692;28;20435;-61
2021/10/14 09:20:20;;;;;;;3.53;2.83;;;13.20;99.90;;;;;;5035361;28;20378;-61
2021/10/14 09:23:02;;;;;;;3.90;3.50;;;13.60;99.90;;;;;;5035835;28;20450;-59
2021/10/14 09:25:35;;;;;;;6.13;3.60;;;13.60;99.90;;;;;;5035422;28;20427;-60
2021/10/14 09:28:24;;;;;;;3.53;2.90;;;13.70;99.90;;;;;;5016871;28;20463;-60
2021/10/14 09:30:56;;;;;;;4.20;3.80;;;14.20;99.90;;;;;;5035598;28;20447;-60
2021/10/14 09:33:45;;;;;;;3.80;2.93;;;14.20;99.90;;;;;;5035358;28;20493;-60
2021/10/14 09:36:25;;;;;;;5.87;2.90;;;14.30;99.90;;;;;;5035028;28;20403;-60
2021/10/14 09:39:03;;;;;;;4.53;3.33;;;14.70;99.90;;;;;;5034837;28;20404;-60
2021/10/14 09:41:38;;;;;;;5.30;2.87;;;14.80;99.90;;;;;;5035080;28;20390;-60
2021/10/14 09:44:07;;;;;;;3.40;3.10;;;14.60;99.90;;;;;;5026347;28;20443;-60
2021/10/14 09:46:44;;;;;;;4.20;3.13;;;13.90;99.90;;;;;;5031932;28;20443;-58
2021/10/14 09:49:14;;;;;;;3.33;3.03;;;14.10;99.90;;;;;;5035308;28;20459;-60
2021/10/14 09:51:41;;;;;;;5.20;3.20;;;14.20;99.90;;;;;;5034681;28;20452;-60
2021/10/14 09:54:07;;;;;;;4.80;2.70;;;14.30;99.90;;;;;;5034523;28;20459;-60
2021/10/14 09:56:33;;;;;;;2.83;2.60;;;14.10;99.90;;;;;;5034750;28;20408;-59
2021/10/14 09:59:03;;;;;;;3.43;2.60;;;14.00;99.90;;;;;;5034480;28;20511;-60
2021/10/14 10:01:31;;;;;;;4.20;2.80;;;14.10;99.90;;;;;;5034728;28;20403;-60
2021/10/14 10:03:57;;;;;;;4.10;2.70;;;14.20;99.90;;;;;;5033798;28;20427;-60
2021/10/14 10:06:26;;;;;;;3.47;2.57;;;14.20;99.90;;;;;;5035119;28;20443;-60
2021/10/14 10:08:53;;;;;;;4.03;3.00;;;14.40;99.90;;;;;;5034852;28;20402;-60
2021/10/14 10:11:21;;;;;;;5.97;2.80;;;14.50;99.90;;;;;;5034234;28;20491;-60
2021/10/14 10:13:51;;;;;;;4.13;2.33;;;14.60;99.90;;;;;;5034090;28;20460;-60
2021/10/14 10:16:18;;;;;;;4.17;2.57;;;14.70;99.90;;;;;;5034237;28;20385;-60
2021/10/14 10:18:59;;;;;;;3.50;2.20;;;14.80;99.90;;;;;;5034530;28;20414;-59
2021/10/14 10:21:30;;;;;;;3.97;2.40;;;14.90;99.90;;;;;;5034806;28;20961;-65
2021/10/14 10:24:04;;;;;;;2.60;1.70;;;15.20;99.90;;;;;;5034279;28;20436;-59
2021/10/14 10:26:35;;;;;;;3.07;2.70;;;15.10;99.90;;;;;;5034241;28;20418;-61
2021/10/14 10:29:10;;;;;;;4.17;1.67;;;14.80;99.90;;;;;;5033796;28;20493;-61
2021/10/14 10:31:56;;;;;;;2.90;2.27;;;14.80;99.90;;;;;;5021493;28;20435;-61
2021/10/14 10:34:56;;;;;;;3.80;2.10;;;14.90;99.90;;;;;;5014285;28;20427;-61
2021/10/14 10:37:30;;;;;;;4.70;2.40;;;15.40;99.90;;;;;;5014191;28;20802;-61
2021/10/14 10:40:18;;;;;;;4.20;1.93;;;15.60;99.70;;;;;;5014438;28;20399;-60
2021/10/14 10:42:53;;;;;;;3.13;1.60;;;15.80;99.50;;;;;;5014158;28;20388;-60
2021/10/14 10:45:30;;;;;;;3.70;1.80;;;15.70;99.70;;;;;;5014209;28;20791;-58
2021/10/14 10:47:57;;;;;;;3.33;1.73;;;16.00;98.80;;;;;;5014195;28;20404;-58
2021/10/14 10:50:28;;;;;;;5.17;2.20;;;16.00;98.80;;;;;;5013963;28;20408;-59
2021/10/14 10:53:13;;;;;;;25.70;6.60;;;16.40;98.70;;;;;;5014048;28;20537;-59
2021/10/14 10:55:48;;;;;;;9.27;2.80;;;17.30;97.80;;;;;;5033920;28;20426;-59
2021/10/14 10:58:35;;;;;;;2.77;1.80;;;18.70;95.90;;;;;;5032948;28;20390;-56
2021/10/14 11:01:01;;;;;;;3.87;1.80;;;19.40;93.90;;;;;;5033446;28;20402;-57
2021/10/14 11:03:28;;;;;;;2.97;1.70;;;20.30;92.20;;;;;;5033506;28;20409;-59
2021/10/14 11:05:55;;;;;;;2.27;1.80;;;20.80;92.00;;;;;;5033325;28;20441;-60
2021/10/14 11:08:32;;;;;;;2.87;1.57;;;20.30;89.70;;;;;;5033522;28;20402;-60
2021/10/14 11:10:58;;;;;;;2.43;1.73;;;20.10;91.90;;;;;;5033566;28;20401;-60
2021/10/14 11:13:27;;;;;;;1.93;1.50;;;20.30;89.90;;;;;;5032510;28;20406;-60
2021/10/14 11:15:55;;;;;;;1.63;1.50;;;19.30;90.70;;;;;;5032928;28;20168;-60
2021/10/14 11:18:23;;;;;;;3.00;2.10;;;19.50;91.00;;;;;;5032991;28;20398;-61
2021/10/14 11:21:01;;;;;;;3.43;2.33;;;20.20;91.40;;;;;;5033119;28;20406;-61
2021/10/14 11:23:38;;;;;;;3.70;1.73;;;21.20;89.80;;;;;;5033416;28;20872;-61
2021/10/14 11:26:13;;;;;;;3.50;1.90;;;22.00;85.30;;;;;;5033296;28;20370;-61
2021/10/14 11:29:22;;;;;;;2.20;2.00;;;22.50;87.80;;;;;;5032636;28;20890;-62
2021/10/14 11:32:01;;;;;;;3.83;2.10;;;23.20;80.40;;;;;;5032951;28;20449;-61
2021/10/14 11:34:28;;;;;;;3.70;2.30;;;23.70;82.00;;;;;;5033292;28;20426;-61
2021/10/14 11:36:57;;;;;;;2.60;1.97;;;23.80;79.20;;;;;;5032905;28;20426;-60
2021/10/14 11:39:25;;;;;;;3.87;2.30;;;23.20;78.70;;;;;;5033076;28;20417;-61
2021/10/14 11:42:00;;;;;;;2.87;2.30;;;22.00;78.60;;;;;;5032981;28;20414;-61
2021/10/14 11:44:32;;;;;;;3.67;2.53;;;21.70;82.80;;;;;;5032895;28;20822;-61
2021/10/14 11:46:59;;;;;;;2.57;2.30;;;23.00;81.00;;;;;;5033260;28;20441;-60
2021/10/14 11:49:25;;;;;;;4.43;3.03;;;23.60;77.80;;;;;;5032610;28;20472;-61
2021/10/14 11:51:51;;;;;;;4.90;2.83;;;25.80;74.60;;;;;;5032981;28;20459;-60
2021/10/14 11:54:18;;;;;;;2.87;2.67;;;25.90;70.40;;;;;;5032658;28;20841;-60
2021/10/14 11:56:49;;;;;;;5.07;3.40;;;24.60;74.40;;;;;;5032552;28;20456;-60
2021/10/14 11:59:20;;;;;;;4.03;2.80;;;23.80;74.70;;;;;;5032824;28;20405;-60
2021/10/14 12:01:55;;;;;;;5.63;3.60;;;23.10;76.60;;;;;;5032988;28;20410;-60
2021/10/14 12:04:24;;;;;;;4.60;3.77;;;22.40;77.60;;;;;;5033129;28;20806;-59
2021/10/14 12:06:51;;;;;;;3.37;2.97;;;22.30;78.50;;;;;;5033120;28;20418;-59
2021/10/14 12:09:18;;;;;;;4.83;3.03;;;23.20;76.40;;;;;;5033146;28;20776;-59
2021/10/14 12:11:44;;;;;;;3.30;3.00;;;23.40;74.10;;;;;;5032715;28;20453;-60
2021/10/14 12:14:10;;;;;;;2.43;2.00;;;22.20;76.00;;;;;;5032332;28;20426;-60
2021/10/14 12:16:36;;;;;;;5.03;2.33;;;22.20;78.90;;;;;;5032779;28;20467;-60
2021/10/14 12:19:14;;;;;;;5.50;3.03;;;21.50;78.20;;;;;;5032735;28;20405;-59
2021/10/14 12:21:41;;;;;;;5.30;3.30;;;20.90;80.50;;;;;;5032995;28;20182;-60
2021/10/14 12:24:31;;;;;;;3.73;3.00;;;20.80;83.50;;;;;;5032469;28;20441;-60
2021/10/14 12:26:56;;;;;;;4.17;2.70;;;20.20;86.50;;;;;;5033182;28;20394;-60
2021/10/14 12:29:33;;;;;;;3.60;2.90;;;20.30;87.80;;;;;;5036013;28;20926;-58
2021/10/14 12:32:19;;;;;;;4.37;2.67;;;20.10;86.50;;;;;;5026930;28;20196;-59
2021/10/14 12:35:07;;;;;;;4.23;2.67;;;19.90;85.90;;;;;;5017159;28;20513;-61
2021/10/14 12:37:34;;;;;;;4.00;3.13;;;19.90;85.40;;;;;;5023465;28;20822;-61
2021/10/14 12:40:21;;;;;;;5.33;2.20;;;19.60;86.30;;;;;;5036132;28;20409;-61
2021/10/14 12:51:18;;;;;;;4.83;3.00;;;19.30;89.20;;;;;;5036204;28;20401;-61
2021/10/14 12:53:46;;;;;;;4.77;3.10;;;19.30;89.90;;;;;;5035519;28;20472;-61
2021/10/14 12:56:14;;;;;;;4.33;2.77;;;19.10;91.40;;;;;;5036058;28;20406;-60
2021/10/14 12:58:41;;;;;;;6.50;3.33;;;19.20;90.10;;;;;;5035329;28;20418;-59
2021/10/14 13:01:12;;;;;;;5.83;2.70;;;19.10;90.90;;;;;;5036034;28;20514;-59
2021/10/14 13:03:39;;;;;;;4.20;2.60;;;18.90;91.20;;;;;;5035920;28;20441;-57
2021/10/14 13:06:05;;;;;;;3.53;2.53;;;19.20;91.00;;;;;;5035806;28;20436;-59
2021/10/14 13:08:35;;;;;;;4.60;2.57;;;19.00;90.80;;;;;;5035858;28;20413;-59